sensor_id;sensor_type;location;lat;lon;timestamp;P1;durP1;ratioP1;P2;durP2;ratioP2
78783;SDS011;68127;51.050;14.084;2024-03-08T00:00:13;27.70;;;14.43;;
78783;SDS011;68127;51.050;14.084;2024-03-08T00:02:44;27.52;;;15.38;;
78783;SDS011;68127;51.050;14.084;2024-03-08T00:05:10;28.33;;;14.95;;
78783;SDS011;68127;51.050;14.084;2024-03-08T00:07:36;28.27;;;14.70;;
78783;SDS011;68127;51.050;14.084;2024-03-08T00:10:05;28.80;;;15.13;;
78783;SDS011;68127;51.050;14.084;2024-03-08T00:12:32;29.63;;;15.23;;
78783;SDS011;68127;51.050;14.084;2024-03-08T00:14:57;25.25;;;14.40;;
78783;SDS011;68127;51.050;14.084;2024-03-08T00:17:22;26.70;;;14.68;;
78783;SDS011;68127;51.050;14.084;2024-03-08T00:19:48;30.42;;;15.20;;
78783;SDS011;68127;51.050;14.084;2024-03-08T00:22:15;29.42;;;14.70;;
78783;SDS011;68127;51.050;14.084;2024-03-08T00:24:41;30.60;;;15.07;;
78783;SDS011;68127;51.050;14.084;2024-03-08T00:27:06;29.65;;;15.43;;
78783;SDS011;68127;51.050;14.084;2024-03-08T00:29:31;32.90;;;16.77;;
78783;SDS011;68127;51.050;14.084;2024-03-08T00:31:56;28.85;;;15.30;;
78783;SDS011;68127;51.050;14.084;2024-03-08T00:34:22;30.45;;;15.95;;
78783;SDS011;68127;51.050;14.084;2024-03-08T00:36:48;27.85;;;14.85;;
78783;SDS011;68127;51.050;14.084;2024-03-08T00:39:14;30.75;;;16.42;;
78783;SDS011;68127;51.050;14.084;2024-03-08T00:41:39;28.17;;;14.57;;
78783;SDS011;68127;51.050;14.084;2024-03-08T00:44:04;30.35;;;15.57;;
78783;SDS011;68127;51.050;14.084;2024-03-08T00:46:30;29.58;;;15.27;;
78783;SDS011;68127;51.050;14.084;2024-03-08T00:48:56;30.73;;;15.23;;
78783;SDS011;68127;51.050;14.084;2024-03-08T00:51:22;30.13;;;15.52;;
78783;SDS011;68127;51.050;14.084;2024-03-08T00:53:47;31.27;;;16.25;;
78783;SDS011;68127;51.050;14.084;2024-03-08T00:56:12;27.73;;;14.95;;
78783;SDS011;68127;51.050;14.084;2024-03-08T00:58:37;32.33;;;15.77;;
78783;SDS011;68127;51.050;14.084;2024-03-08T01:01:03;28.85;;;15.00;;
78783;SDS011;68127;51.050;14.084;2024-03-08T01:03:29;30.63;;;15.68;;
78783;SDS011;68127;51.050;14.084;2024-03-08T01:05:56;31.75;;;15.30;;
78783;SDS011;68127;51.050;14.084;2024-03-08T01:08:22;27.98;;;15.30;;
78783;SDS011;68127;51.050;14.084;2024-03-08T01:10:48;32.75;;;16.15;;
78783;SDS011;68127;51.050;14.084;2024-03-08T01:13:15;27.67;;;14.70;;
78783;SDS011;68127;51.050;14.084;2024-03-08T01:15:40;29.40;;;16.42;;
78783;SDS011;68127;51.050;14.084;2024-03-08T01:18:06;29.75;;;16.20;;
78783;SDS011;68127;51.050;14.084;2024-03-08T01:20:31;31.38;;;16.45;;
78783;SDS011;68127;51.050;14.084;2024-03-08T01:22:57;29.13;;;15.13;;
78783;SDS011;68127;51.050;14.084;2024-03-08T01:25:22;31.88;;;15.98;;
78783;SDS011;68127;51.050;14.084;2024-03-08T01:27:47;29.67;;;15.60;;
78783;SDS011;68127;51.050;14.084;2024-03-08T01:30:13;30.58;;;15.65;;
78783;SDS011;68127;51.050;14.084;2024-03-08T01:32:41;28.98;;;15.95;;
78783;SDS011;68127;51.050;14.084;2024-03-08T01:35:07;28.58;;;15.65;;
78783;SDS011;68127;51.050;14.084;2024-03-08T01:37:34;39.65;;;16.35;;
78783;SDS011;68127;51.050;14.084;2024-03-08T01:39:59;27.65;;;15.77;;
78783;SDS011;68127;51.050;14.084;2024-03-08T01:42:25;34.08;;;16.08;;
78783;SDS011;68127;51.050;14.084;2024-03-08T01:44:51;29.08;;;14.88;;
78783;SDS011;68127;51.050;14.084;2024-03-08T01:47:16;28.65;;;15.48;;
78783;SDS011;68127;51.050;14.084;2024-03-08T01:49:41;32.60;;;16.27;;
78783;SDS011;68127;51.050;14.084;2024-03-08T01:52:07;29.48;;;15.82;;
78783;SDS011;68127;51.050;14.084;2024-03-08T01:54:32;29.58;;;15.52;;
78783;SDS011;68127;51.050;14.084;2024-03-08T01:56:58;30.88;;;16.73;;
78783;SDS011;68127;51.050;14.084;2024-03-08T01:59:23;29.50;;;16.95;;
78783;SDS011;68127;51.050;14.084;2024-03-08T02:01:49;33.28;;;16.83;;
78783;SDS011;68127;51.050;14.084;2024-03-08T02:04:16;29.67;;;16.13;;
78783;SDS011;68127;51.050;14.084;2024-03-08T02:06:41;34.80;;;16.88;;
78783;SDS011;68127;51.050;14.084;2024-03-08T02:09:06;35.78;;;17.83;;
78783;SDS011;68127;51.050;14.084;2024-03-08T02:11:33;33.58;;;16.73;;
78783;SDS011;68127;51.050;14.084;2024-03-08T02:13:59;32.53;;;17.17;;
78783;SDS011;68127;51.050;14.084;2024-03-08T02:16:24;34.00;;;17.58;;
78783;SDS011;68127;51.050;14.084;2024-03-08T02:18:50;32.55;;;16.48;;
78783;SDS011;68127;51.050;14.084;2024-03-08T02:21:16;28.58;;;15.73;;
78783;SDS011;68127;51.050;14.084;2024-03-08T02:23:45;32.53;;;17.05;;
78783;SDS011;68127;51.050;14.084;2024-03-08T02:26:11;30.15;;;16.20;;
78783;SDS011;68127;51.050;14.084;2024-03-08T02:28:36;35.95;;;17.95;;
78783;SDS011;68127;51.050;14.084;2024-03-08T02:31:01;32.70;;;16.70;;
78783;SDS011;68127;51.050;14.084;2024-03-08T02:33:27;33.92;;;17.10;;
78783;SDS011;68127;51.050;14.084;2024-03-08T02:35:53;37.55;;;17.02;;
78783;SDS011;68127;51.050;14.084;2024-03-08T02:38:20;36.55;;;18.98;;
78783;SDS011;68127;51.050;14.084;2024-03-08T02:40:47;35.05;;;16.77;;
78783;SDS011;68127;51.050;14.084;2024-03-08T02:43:14;37.75;;;17.38;;
78783;SDS011;68127;51.050;14.084;2024-03-08T02:45:40;34.08;;;17.17;;
78783;SDS011;68127;51.050;14.084;2024-03-08T02:48:07;34.90;;;17.10;;
78783;SDS011;68127;51.050;14.084;2024-03-08T02:50:32;33.72;;;17.73;;
78783;SDS011;68127;51.050;14.084;2024-03-08T02:52:59;32.53;;;17.35;;
78783;SDS011;68127;51.050;14.084;2024-03-08T02:55:24;36.97;;;17.25;;
78783;SDS011;68127;51.050;14.084;2024-03-08T02:57:51;31.55;;;17.38;;
78783;SDS011;68127;51.050;14.084;2024-03-08T03:00:17;31.02;;;17.52;;
78783;SDS011;68127;51.050;14.084;2024-03-08T03:02:44;30.83;;;16.90;;
78783;SDS011;68127;51.050;14.084;2024-03-08T03:05:09;33.38;;;17.52;;
78783;SDS011;68127;51.050;14.084;2024-03-08T03:07:36;34.35;;;17.40;;
78783;SDS011;68127;51.050;14.084;2024-03-08T03:10:02;34.28;;;17.77;;
78783;SDS011;68127;51.050;14.084;2024-03-08T03:12:28;35.03;;;17.33;;
78783;SDS011;68127;51.050;14.084;2024-03-08T03:14:53;35.83;;;18.42;;
78783;SDS011;68127;51.050;14.084;2024-03-08T03:17:18;32.05;;;17.13;;
78783;SDS011;68127;51.050;14.084;2024-03-08T03:19:45;34.70;;;18.13;;
78783;SDS011;68127;51.050;14.084;2024-03-08T03:22:11;34.83;;;17.58;;
78783;SDS011;68127;51.050;14.084;2024-03-08T03:24:36;34.17;;;18.15;;
78783;SDS011;68127;51.050;14.084;2024-03-08T03:27:03;35.58;;;19.02;;
78783;SDS011;68127;51.050;14.084;2024-03-08T03:29:35;39.55;;;19.48;;
78783;SDS011;68127;51.050;14.084;2024-03-08T03:32:01;32.78;;;17.73;;
78783;SDS011;68127;51.050;14.084;2024-03-08T03:34:28;36.28;;;18.15;;
78783;SDS011;68127;51.050;14.084;2024-03-08T03:36:54;39.20;;;18.70;;
78783;SDS011;68127;51.050;14.084;2024-03-08T03:39:20;36.03;;;18.98;;
78783;SDS011;68127;51.050;14.084;2024-03-08T03:41:47;34.15;;;17.63;;
78783;SDS011;68127;51.050;14.084;2024-03-08T03:44:14;35.80;;;18.15;;
78783;SDS011;68127;51.050;14.084;2024-03-08T03:46:41;39.35;;;19.02;;
78783;SDS011;68127;51.050;14.084;2024-03-08T03:49:09;34.40;;;16.90;;
78783;SDS011;68127;51.050;14.084;2024-03-08T03:51:34;34.58;;;18.88;;
78783;SDS011;68127;51.050;14.084;2024-03-08T03:53:59;37.67;;;19.50;;
78783;SDS011;68127;51.050;14.084;2024-03-08T03:56:25;39.03;;;19.02;;
78783;SDS011;68127;51.050;14.084;2024-03-08T03:58:51;36.20;;;18.60;;
78783;SDS011;68127;51.050;14.084;2024-03-08T04:01:16;38.00;;;18.98;;
78783;SDS011;68127;51.050;14.084;2024-03-08T04:03:42;39.58;;;19.48;;
78783;SDS011;68127;51.050;14.084;2024-03-08T04:06:08;36.80;;;19.27;;
78783;SDS011;68127;51.050;14.084;2024-03-08T04:08:33;36.47;;;18.63;;
78783;SDS011;68127;51.050;14.084;2024-03-08T04:10:59;40.38;;;18.85;;
78783;SDS011;68127;51.050;14.084;2024-03-08T04:13:25;39.90;;;18.63;;
78783;SDS011;68127;51.050;14.084;2024-03-08T04:15:51;38.67;;;18.67;;
78783;SDS011;68127;51.050;14.084;2024-03-08T04:18:16;38.50;;;18.70;;
78783;SDS011;68127;51.050;14.084;2024-03-08T04:20:43;44.95;;;19.73;;
78783;SDS011;68127;51.050;14.084;2024-03-08T04:23:08;45.08;;;19.63;;
78783;SDS011;68127;51.050;14.084;2024-03-08T04:25:33;38.03;;;18.85;;
78783;SDS011;68127;51.050;14.084;2024-03-08T04:27:59;39.05;;;18.52;;
78783;SDS011;68127;51.050;14.084;2024-03-08T04:30:24;42.55;;;20.30;;
78783;SDS011;68127;51.050;14.084;2024-03-08T04:32:49;40.05;;;19.90;;
78783;SDS011;68127;51.050;14.084;2024-03-08T04:35:15;39.13;;;18.65;;
78783;SDS011;68127;51.050;14.084;2024-03-08T04:37:40;40.05;;;19.80;;
78783;SDS011;68127;51.050;14.084;2024-03-08T04:40:06;38.97;;;18.38;;
78783;SDS011;68127;51.050;14.084;2024-03-08T04:42:31;37.08;;;18.98;;
78783;SDS011;68127;51.050;14.084;2024-03-08T04:45:00;41.40;;;19.95;;
78783;SDS011;68127;51.050;14.084;2024-03-08T04:47:25;38.22;;;19.45;;
78783;SDS011;68127;51.050;14.084;2024-03-08T04:49:50;34.35;;;17.73;;
78783;SDS011;68127;51.050;14.084;2024-03-08T04:52:16;39.83;;;18.45;;
78783;SDS011;68127;51.050;14.084;2024-03-08T04:54:41;40.08;;;19.73;;
78783;SDS011;68127;51.050;14.084;2024-03-08T04:57:07;38.28;;;19.52;;
78783;SDS011;68127;51.050;14.084;2024-03-08T04:59:32;39.10;;;19.40;;
78783;SDS011;68127;51.050;14.084;2024-03-08T05:01:57;40.83;;;20.48;;
78783;SDS011;68127;51.050;14.084;2024-03-08T05:04:23;40.03;;;19.30;;
78783;SDS011;68127;51.050;14.084;2024-03-08T05:06:48;38.72;;;19.50;;
78783;SDS011;68127;51.050;14.084;2024-03-08T05:09:13;39.80;;;20.75;;
78783;SDS011;68127;51.050;14.084;2024-03-08T05:11:42;40.50;;;19.13;;
78783;SDS011;68127;51.050;14.084;2024-03-08T05:14:08;41.70;;;20.48;;
78783;SDS011;68127;51.050;14.084;2024-03-08T05:16:34;41.80;;;20.15;;
78783;SDS011;68127;51.050;14.084;2024-03-08T05:18:59;41.97;;;19.73;;
78783;SDS011;68127;51.050;14.084;2024-03-08T05:21:24;40.92;;;19.80;;
78783;SDS011;68127;51.050;14.084;2024-03-08T05:23:50;37.75;;;19.45;;
78783;SDS011;68127;51.050;14.084;2024-03-08T05:26:16;40.83;;;20.23;;
78783;SDS011;68127;51.050;14.084;2024-03-08T05:28:41;34.70;;;18.58;;
78783;SDS011;68127;51.050;14.084;2024-03-08T05:31:08;39.75;;;19.48;;
78783;SDS011;68127;51.050;14.084;2024-03-08T05:33:35;42.45;;;19.63;;
78783;SDS011;68127;51.050;14.084;2024-03-08T05:36:00;44.03;;;20.23;;
78783;SDS011;68127;51.050;14.084;2024-03-08T05:38:27;39.55;;;18.73;;
78783;SDS011;68127;51.050;14.084;2024-03-08T05:40:53;38.83;;;19.67;;
78783;SDS011;68127;51.050;14.084;2024-03-08T05:43:19;41.53;;;18.65;;
78783;SDS011;68127;51.050;14.084;2024-03-08T05:45:44;38.75;;;18.45;;
78783;SDS011;68127;51.050;14.084;2024-03-08T05:48:10;41.42;;;19.67;;
78783;SDS011;68127;51.050;14.084;2024-03-08T05:50:37;39.85;;;19.75;;
78783;SDS011;68127;51.050;14.084;2024-03-08T05:53:03;44.50;;;20.88;;
78783;SDS011;68127;51.050;14.084;2024-03-08T05:55:31;43.03;;;19.73;;
78783;SDS011;68127;51.050;14.084;2024-03-08T05:57:59;41.33;;;19.60;;
78783;SDS011;68127;51.050;14.084;2024-03-08T06:00:25;36.53;;;19.25;;
78783;SDS011;68127;51.050;14.084;2024-03-08T06:02:51;38.60;;;19.98;;
78783;SDS011;68127;51.050;14.084;2024-03-08T06:05:16;37.38;;;19.13;;
78783;SDS011;68127;51.050;14.084;2024-03-08T06:07:42;40.88;;;20.20;;
78783;SDS011;68127;51.050;14.084;2024-03-08T06:10:08;41.17;;;20.25;;
78783;SDS011;68127;51.050;14.084;2024-03-08T06:12:35;41.58;;;20.92;;
78783;SDS011;68127;51.050;14.084;2024-03-08T06:15:05;45.83;;;20.50;;
78783;SDS011;68127;51.050;14.084;2024-03-08T06:17:31;45.08;;;21.00;;
78783;SDS011;68127;51.050;14.084;2024-03-08T06:19:56;38.03;;;18.98;;
78783;SDS011;68127;51.050;14.084;2024-03-08T06:22:21;43.35;;;19.98;;
78783;SDS011;68127;51.050;14.084;2024-03-08T06:24:46;40.83;;;19.45;;
78783;SDS011;68127;51.050;14.084;2024-03-08T06:27:12;38.03;;;19.95;;
78783;SDS011;68127;51.050;14.084;2024-03-08T06:29:38;45.08;;;20.05;;
78783;SDS011;68127;51.050;14.084;2024-03-08T06:32:04;39.63;;;20.42;;
78783;SDS011;68127;51.050;14.084;2024-03-08T06:34:29;45.10;;;21.17;;
78783;SDS011;68127;51.050;14.084;2024-03-08T06:36:58;41.45;;;20.10;;
78783;SDS011;68127;51.050;14.084;2024-03-08T06:39:25;41.58;;;21.02;;
78783;SDS011;68127;51.050;14.084;2024-03-08T06:41:51;37.33;;;19.77;;
78783;SDS011;68127;51.050;14.084;2024-03-08T06:44:16;40.85;;;20.90;;
78783;SDS011;68127;51.050;14.084;2024-03-08T06:46:41;42.33;;;19.92;;
78783;SDS011;68127;51.050;14.084;2024-03-08T06:49:07;39.00;;;19.10;;
78783;SDS011;68127;51.050;14.084;2024-03-08T06:51:34;43.40;;;20.40;;
78783;SDS011;68127;51.050;14.084;2024-03-08T06:54:31;34.75;;;19.05;;
78783;SDS011;68127;51.050;14.084;2024-03-08T07:03:53;34.03;;;17.42;;
78783;SDS011;68127;51.050;14.084;2024-03-08T07:06:21;34.55;;;17.73;;
78783;SDS011;68127;51.050;14.084;2024-03-08T07:08:47;37.03;;;18.75;;
78783;SDS011;68127;51.050;14.084;2024-03-08T07:11:13;39.60;;;19.45;;
78783;SDS011;68127;51.050;14.084;2024-03-08T07:13:43;36.45;;;19.05;;
78783;SDS011;68127;51.050;14.084;2024-03-08T07:16:08;37.65;;;18.88;;
78783;SDS011;68127;51.050;14.084;2024-03-08T07:18:33;33.35;;;18.70;;
78783;SDS011;68127;51.050;14.084;2024-03-08T07:21:00;41.42;;;19.15;;
78783;SDS011;68127;51.050;14.084;2024-03-08T07:23:27;36.65;;;18.85;;
78783;SDS011;68127;51.050;14.084;2024-03-08T07:26:10;37.17;;;18.50;;
78783;SDS011;68127;51.050;14.084;2024-03-08T07:28:35;34.97;;;17.67;;
78783;SDS011;68127;51.050;14.084;2024-03-08T07:31:01;37.75;;;19.58;;
78783;SDS011;68127;51.050;14.084;2024-03-08T07:33:45;36.13;;;18.13;;
78783;SDS011;68127;51.050;14.084;2024-03-08T07:36:10;35.38;;;17.88;;
78783;SDS011;68127;51.050;14.084;2024-03-08T07:38:35;34.22;;;18.65;;
78783;SDS011;68127;51.050;14.084;2024-03-08T07:41:01;36.22;;;19.17;;
78783;SDS011;68127;51.050;14.084;2024-03-08T07:43:26;37.55;;;19.20;;
78783;SDS011;68127;51.050;14.084;2024-03-08T07:45:52;36.42;;;17.95;;
78783;SDS011;68127;51.050;14.084;2024-03-08T07:48:20;33.83;;;18.35;;
78783;SDS011;68127;51.050;14.084;2024-03-08T07:50:46;31.13;;;16.83;;
78783;SDS011;68127;51.050;14.084;2024-03-08T07:53:11;35.50;;;17.85;;
78783;SDS011;68127;51.050;14.084;2024-03-08T07:55:36;33.10;;;17.70;;
78783;SDS011;68127;51.050;14.084;2024-03-08T07:58:02;32.75;;;16.85;;
78783;SDS011;68127;51.050;14.084;2024-03-08T08:00:28;33.30;;;18.27;;
78783;SDS011;68127;51.050;14.084;2024-03-08T08:02:53;32.90;;;17.70;;
78783;SDS011;68127;51.050;14.084;2024-03-08T08:05:19;32.90;;;16.55;;
78783;SDS011;68127;51.050;14.084;2024-03-08T08:07:45;30.23;;;16.42;;
78783;SDS011;68127;51.050;14.084;2024-03-08T08:10:11;34.80;;;16.80;;
78783;SDS011;68127;51.050;14.084;2024-03-08T08:12:43;35.13;;;16.08;;
78783;SDS011;68127;51.050;14.084;2024-03-08T08:15:08;31.05;;;16.77;;
78783;SDS011;68127;51.050;14.084;2024-03-08T08:17:34;32.72;;;16.90;;
78783;SDS011;68127;51.050;14.084;2024-03-08T08:19:59;31.95;;;16.50;;
78783;SDS011;68127;51.050;14.084;2024-03-08T08:22:25;32.25;;;15.88;;
78783;SDS011;68127;51.050;14.084;2024-03-08T08:24:50;32.22;;;17.60;;
78783;SDS011;68127;51.050;14.084;2024-03-08T08:27:17;30.55;;;15.65;;
78783;SDS011;68127;51.050;14.084;2024-03-08T08:29:42;27.48;;;14.20;;
78783;SDS011;68127;51.050;14.084;2024-03-08T08:32:08;29.55;;;15.88;;
78783;SDS011;68127;51.050;14.084;2024-03-08T08:34:33;30.50;;;16.20;;
78783;SDS011;68127;51.050;14.084;2024-03-08T08:36:58;30.13;;;15.70;;
78783;SDS011;68127;51.050;14.084;2024-03-08T08:39:24;28.05;;;14.48;;
78783;SDS011;68127;51.050;14.084;2024-03-08T08:41:50;28.65;;;15.10;;
78783;SDS011;68127;51.050;14.084;2024-03-08T08:44:16;29.40;;;15.55;;
78783;SDS011;68127;51.050;14.084;2024-03-08T08:46:41;28.00;;;14.90;;
78783;SDS011;68127;51.050;14.084;2024-03-08T08:49:06;23.77;;;13.32;;
78783;SDS011;68127;51.050;14.084;2024-03-08T08:51:35;25.05;;;12.95;;
78783;SDS011;68127;51.050;14.084;2024-03-08T08:54:00;29.90;;;14.35;;
78783;SDS011;68127;51.050;14.084;2024-03-08T08:56:25;27.17;;;13.73;;
78783;SDS011;68127;51.050;14.084;2024-03-08T08:58:51;26.65;;;12.95;;
78783;SDS011;68127;51.050;14.084;2024-03-08T09:01:19;25.85;;;13.82;;
78783;SDS011;68127;51.050;14.084;2024-03-08T09:03:45;26.92;;;13.63;;
78783;SDS011;68127;51.050;14.084;2024-03-08T09:06:11;25.23;;;13.68;;
78783;SDS011;68127;51.050;14.084;2024-03-08T09:08:38;28.85;;;14.38;;
78783;SDS011;68127;51.050;14.084;2024-03-08T09:11:06;27.05;;;13.40;;
78783;SDS011;68127;51.050;14.084;2024-03-08T09:13:31;25.85;;;13.00;;
78783;SDS011;68127;51.050;14.084;2024-03-08T09:15:58;23.80;;;12.68;;
78783;SDS011;68127;51.050;14.084;2024-03-08T09:18:23;23.70;;;13.60;;
78783;SDS011;68127;51.050;14.084;2024-03-08T09:20:49;30.05;;;14.23;;
78783;SDS011;68127;51.050;14.084;2024-03-08T09:23:14;26.40;;;14.07;;
78783;SDS011;68127;51.050;14.084;2024-03-08T09:25:41;26.90;;;14.48;;
78783;SDS011;68127;51.050;14.084;2024-03-08T09:28:07;27.77;;;13.85;;
78783;SDS011;68127;51.050;14.084;2024-03-08T09:30:32;26.25;;;14.15;;
78783;SDS011;68127;51.050;14.084;2024-03-08T09:32:59;24.48;;;12.93;;
78783;SDS011;68127;51.050;14.084;2024-03-08T09:35:24;29.05;;;14.23;;
78783;SDS011;68127;51.050;14.084;2024-03-08T09:37:50;26.40;;;13.23;;
78783;SDS011;68127;51.050;14.084;2024-03-08T09:40:16;24.83;;;13.73;;
78783;SDS011;68127;51.050;14.084;2024-03-08T09:42:45;33.45;;;16.00;;
78783;SDS011;68127;51.050;14.084;2024-03-08T09:45:11;25.05;;;13.52;;
78783;SDS011;68127;51.050;14.084;2024-03-08T09:47:43;25.00;;;13.93;;
78783;SDS011;68127;51.050;14.084;2024-03-08T09:50:09;29.00;;;14.35;;
78783;SDS011;68127;51.050;14.084;2024-03-08T09:53:08;29.30;;;15.05;;
78783;SDS011;68127;51.050;14.084;2024-03-08T09:55:27;24.08;;;13.00;;
78783;SDS011;68127;51.050;14.084;2024-03-08T09:57:58;26.83;;;14.20;;
78783;SDS011;68127;51.050;14.084;2024-03-08T10:00:43;22.20;;;12.93;;
78783;SDS011;68127;51.050;14.084;2024-03-08T10:03:08;23.60;;;12.52;;
78783;SDS011;68127;51.050;14.084;2024-03-08T10:05:34;25.38;;;12.93;;
78783;SDS011;68127;51.050;14.084;2024-03-08T10:07:59;23.27;;;12.05;;
78783;SDS011;68127;51.050;14.084;2024-03-08T10:10:24;21.00;;;11.23;;
78783;SDS011;68127;51.050;14.084;2024-03-08T10:12:50;21.70;;;11.55;;
78783;SDS011;68127;51.050;14.084;2024-03-08T10:15:16;21.77;;;11.73;;
78783;SDS011;68127;51.050;14.084;2024-03-08T10:17:41;19.15;;;11.07;;
78783;SDS011;68127;51.050;14.084;2024-03-08T10:20:17;22.08;;;11.30;;
78783;SDS011;68127;51.050;14.084;2024-03-08T10:22:42;20.67;;;11.93;;
78783;SDS011;68127;51.050;14.084;2024-03-08T10:25:09;22.50;;;12.10;;
78783;SDS011;68127;51.050;14.084;2024-03-08T10:27:39;22.45;;;12.07;;
78783;SDS011;68127;51.050;14.084;2024-03-08T10:30:11;21.38;;;11.85;;
78783;SDS011;68127;51.050;14.084;2024-03-08T10:32:38;23.77;;;13.52;;
78783;SDS011;68127;51.050;14.084;2024-03-08T10:35:06;26.60;;;12.27;;
78783;SDS011;68127;51.050;14.084;2024-03-08T10:37:37;24.48;;;12.82;;
78783;SDS011;68127;51.050;14.084;2024-03-08T10:40:18;22.52;;;11.95;;
78783;SDS011;68127;51.050;14.084;2024-03-08T10:43:02;23.25;;;11.93;;
78783;SDS011;68127;51.050;14.084;2024-03-08T10:50:44;20.65;;;11.43;;
78783;SDS011;68127;51.050;14.084;2024-03-08T10:53:15;20.95;;;11.75;;
78783;SDS011;68127;51.050;14.084;2024-03-08T10:55:40;23.13;;;12.02;;
78783;SDS011;68127;51.050;14.084;2024-03-08T10:58:07;22.77;;;11.85;;
78783;SDS011;68127;51.050;14.084;2024-03-08T11:00:33;20.30;;;12.02;;
78783;SDS011;68127;51.050;14.084;2024-03-08T11:02:58;20.20;;;11.30;;
78783;SDS011;68127;51.050;14.084;2024-03-08T11:05:31;23.45;;;11.57;;
78783;SDS011;68127;51.050;14.084;2024-03-08T11:08:03;19.58;;;11.18;;
78783;SDS011;68127;51.050;14.084;2024-03-08T11:10:49;19.52;;;10.60;;
78783;SDS011;68127;51.050;14.084;2024-03-08T11:15:59;22.98;;;12.07;;
78783;SDS011;68127;51.050;14.084;2024-03-08T11:18:25;23.05;;;12.45;;
78783;SDS011;68127;51.050;14.084;2024-03-08T11:20:53;25.77;;;13.02;;
78783;SDS011;68127;51.050;14.084;2024-03-08T11:23:21;19.27;;;11.60;;
78783;SDS011;68127;51.050;14.084;2024-03-08T11:25:47;19.38;;;11.27;;
78783;SDS011;68127;51.050;14.084;2024-03-08T11:28:18;19.80;;;10.57;;
78783;SDS011;68127;51.050;14.084;2024-03-08T11:30:45;21.30;;;11.50;;
78783;SDS011;68127;51.050;14.084;2024-03-08T11:33:13;18.33;;;11.13;;
78783;SDS011;68127;51.050;14.084;2024-03-08T11:35:39;18.75;;;11.38;;
78783;SDS011;68127;51.050;14.084;2024-03-08T11:38:07;20.40;;;11.07;;
78783;SDS011;68127;51.050;14.084;2024-03-08T11:40:33;19.50;;;10.43;;
78783;SDS011;68127;51.050;14.084;2024-03-08T11:43:00;20.60;;;10.25;;
78783;SDS011;68127;51.050;14.084;2024-03-08T11:45:28;19.38;;;10.65;;
78783;SDS011;68127;51.050;14.084;2024-03-08T11:47:53;20.40;;;11.35;;
78783;SDS011;68127;51.050;14.084;2024-03-08T11:50:19;16.67;;;10.00;;
78783;SDS011;68127;51.050;14.084;2024-03-08T11:52:46;18.48;;;10.43;;
78783;SDS011;68127;51.050;14.084;2024-03-08T11:55:11;17.75;;;9.75;;
78783;SDS011;68127;51.050;14.084;2024-03-08T11:57:39;16.23;;;9.93;;
78783;SDS011;68127;51.050;14.084;2024-03-08T12:00:05;18.02;;;9.95;;
78783;SDS011;68127;51.050;14.084;2024-03-08T12:02:33;20.15;;;10.43;;
78783;SDS011;68127;51.050;14.084;2024-03-08T12:05:03;19.30;;;10.73;;
78783;SDS011;68127;51.050;14.084;2024-03-08T12:07:29;17.77;;;10.35;;
78783;SDS011;68127;51.050;14.084;2024-03-08T12:12:43;16.92;;;9.43;;
78783;SDS011;68127;51.050;14.084;2024-03-08T12:15:16;16.20;;;9.43;;
78783;SDS011;68127;51.050;14.084;2024-03-08T12:17:43;15.77;;;8.93;;
78783;SDS011;68127;51.050;14.084;2024-03-08T12:20:15;16.48;;;9.32;;
78783;SDS011;68127;51.050;14.084;2024-03-08T12:22:42;14.48;;;8.65;;
78783;SDS011;68127;51.050;14.084;2024-03-08T12:25:11;15.18;;;7.82;;
78783;SDS011;68127;51.050;14.084;2024-03-08T12:27:38;14.90;;;7.95;;
78783;SDS011;68127;51.050;14.084;2024-03-08T12:32:54;16.38;;;8.15;;
78783;SDS011;68127;51.050;14.084;2024-03-08T12:35:24;16.20;;;8.45;;
78783;SDS011;68127;51.050;14.084;2024-03-08T12:37:54;12.10;;;7.80;;
78783;SDS011;68127;51.050;14.084;2024-03-08T12:40:28;15.48;;;7.90;;
78783;SDS011;68127;51.050;14.084;2024-03-08T12:42:55;17.65;;;7.85;;
78783;SDS011;68127;51.050;14.084;2024-03-08T12:45:21;13.75;;;8.30;;
78783;SDS011;68127;51.050;14.084;2024-03-08T12:47:48;15.63;;;8.75;;
78783;SDS011;68127;51.050;14.084;2024-03-08T12:50:14;14.40;;;8.18;;
78783;SDS011;68127;51.050;14.084;2024-03-08T12:52:41;14.15;;;8.20;;
78783;SDS011;68127;51.050;14.084;2024-03-08T12:55:07;15.15;;;8.02;;
78783;SDS011;68127;51.050;14.084;2024-03-08T12:57:33;13.80;;;7.63;;
78783;SDS011;68127;51.050;14.084;2024-03-08T13:00:00;15.98;;;8.43;;
78783;SDS011;68127;51.050;14.084;2024-03-08T13:02:26;14.88;;;7.45;;
78783;SDS011;68127;51.050;14.084;2024-03-08T13:04:51;16.20;;;8.20;;
78783;SDS011;68127;51.050;14.084;2024-03-08T13:07:22;12.40;;;7.68;;
78783;SDS011;68127;51.050;14.084;2024-03-08T13:09:48;12.70;;;7.20;;
78783;SDS011;68127;51.050;14.084;2024-03-08T13:12:14;14.23;;;8.15;;
78783;SDS011;68127;51.050;14.084;2024-03-08T13:14:40;13.07;;;7.50;;
78783;SDS011;68127;51.050;14.084;2024-03-08T13:17:06;14.23;;;7.65;;
78783;SDS011;68127;51.050;14.084;2024-03-08T13:19:35;16.15;;;8.13;;
78783;SDS011;68127;51.050;14.084;2024-03-08T13:22:00;14.75;;;8.18;;
78783;SDS011;68127;51.050;14.084;2024-03-08T13:24:29;14.15;;;8.15;;
78783;SDS011;68127;51.050;14.084;2024-03-08T13:26:54;13.82;;;8.07;;
78783;SDS011;68127;51.050;14.084;2024-03-08T13:29:19;14.40;;;8.20;;
78783;SDS011;68127;51.050;14.084;2024-03-08T13:31:46;12.48;;;7.70;;
78783;SDS011;68127;51.050;14.084;2024-03-08T13:34:14;15.35;;;8.40;;
78783;SDS011;68127;51.050;14.084;2024-03-08T13:36:40;13.00;;;7.82;;
78783;SDS011;68127;51.050;14.084;2024-03-08T13:39:08;14.57;;;7.78;;
78783;SDS011;68127;51.050;14.084;2024-03-08T13:41:40;13.65;;;7.70;;
78783;SDS011;68127;51.050;14.084;2024-03-08T13:44:09;11.98;;;7.28;;
78783;SDS011;68127;51.050;14.084;2024-03-08T13:46:35;15.80;;;8.07;;
78783;SDS011;68127;51.050;14.084;2024-03-08T13:49:05;13.63;;;7.75;;
78783;SDS011;68127;51.050;14.084;2024-03-08T13:51:32;12.95;;;7.93;;
78783;SDS011;68127;51.050;14.084;2024-03-08T13:53:58;12.63;;;7.28;;
78783;SDS011;68127;51.050;14.084;2024-03-08T13:56:25;11.52;;;7.07;;
78783;SDS011;68127;51.050;14.084;2024-03-08T13:58:51;13.63;;;8.20;;
78783;SDS011;68127;51.050;14.084;2024-03-08T14:01:16;14.00;;;7.78;;
78783;SDS011;68127;51.050;14.084;2024-03-08T14:03:41;13.82;;;7.88;;
78783;SDS011;68127;51.050;14.084;2024-03-08T14:06:07;12.93;;;7.63;;
78783;SDS011;68127;51.050;14.084;2024-03-08T14:08:34;12.52;;;6.90;;
78783;SDS011;68127;51.050;14.084;2024-03-08T14:10:59;11.00;;;6.55;;
78783;SDS011;68127;51.050;14.084;2024-03-08T14:13:26;11.40;;;6.63;;
78783;SDS011;68127;51.050;14.084;2024-03-08T14:15:51;13.43;;;7.28;;
78783;SDS011;68127;51.050;14.084;2024-03-08T14:18:17;10.77;;;6.40;;
78783;SDS011;68127;51.050;14.084;2024-03-08T14:20:43;11.15;;;6.90;;
78783;SDS011;68127;51.050;14.084;2024-03-08T14:23:09;11.32;;;7.03;;
78783;SDS011;68127;51.050;14.084;2024-03-08T14:25:35;11.48;;;6.28;;
78783;SDS011;68127;51.050;14.084;2024-03-08T14:28:00;11.60;;;6.32;;